Time;durP1;ratioP1;P1;durP2;ratioP2;P2;SDS_P1;SDS_P2;PMS_P1;PMS_P2;Temp;Humidity;BMP_temperature;BMP_pressure;BME280_temperature;BME280_humidity;BME280_pressure;Samples;Min_cycle;Max_cycle;Signal;HPM_P1;HPM_P2
2022/09/29 00:03:10;;;;;;;6.87;4.25;;;;;;;15.05;67.76;98315.81;7564884;33;37819;-72
2022/09/29 00:07:28;;;;;;;7.43;4.53;;;;;;;15.12;67.45;98310.56;7553804;33;37909;-72
2022/09/29 00:11:44;;;;;;;13.25;4.75;;;;;;;15.25;66.85;98316.91;7559858;33;40096;-71
2022/09/29 00:16:01;;;;;;;7.03;4.20;;;;;;;15.16;66.96;98320.53;7578843;33;40847;-72
2022/09/29 00:20:18;;;;;;;11.63;4.82;;;;;;;15.31;66.36;98319.06;7579373;33;37985;-71
2022/09/29 00:24:34;;;;;;;10.95;6.05;;;;;;;15.17;66.96;98324.06;7579402;33;37067;-72
2022/09/29 00:28:52;;;;;;;9.77;4.43;;;;;;;15.15;67.00;98309.91;7579101;33;39353;-71
2022/09/29 00:33:08;;;;;;;9.23;4.78;;;;;;;14.91;67.75;98318.84;7579135;33;38970;-72
2022/09/29 00:37:24;;;;;;;10.75;5.22;;;;;;;15.12;67.30;98305.06;7568378;33;38794;-71
2022/09/29 00:41:41;;;;;;;11.85;5.37;;;;;;;15.01;67.33;98304.69;7556290;33;37468;-71
2022/09/29 00:45:57;;;;;;;12.40;5.45;;;;;;;15.08;67.46;98304.94;7556218;33;40111;-72
2022/09/29 00:50:25;;;;;;;11.40;4.85;;;;;;;15.32;66.33;98293.25;7567113;33;40878;-73
2022/09/29 00:54:51;;;;;;;8.48;4.87;;;;;;;15.25;66.44;98284.75;7556279;33;37653;-73
2022/09/29 00:59:12;;;;;;;9.57;5.00;;;;;;;15.31;66.10;98282.59;7566594;33;37920;-73
2022/09/29 01:03:37;;;;;;;10.25;4.85;;;;;;;15.20;66.35;98279.47;7566806;33;39314;-72
2022/09/29 01:07:53;;;;;;;8.60;5.20;;;;;;;15.18;66.55;98270.78;7576993;33;39831;-73
2022/09/29 01:12:09;;;;;;;10.15;5.15;;;;;;;15.19;66.27;98278.69;7580329;33;37885;-72
2022/09/29 01:16:25;;;;;;;10.80;5.15;;;;;;;14.49;68.96;98281.22;7592550;32;37223;-73
2022/09/29 01:20:52;;;;;;;9.70;5.28;;;;;;;15.00;67.53;98264.66;7581523;33;40118;-73
2022/09/29 01:25:13;;;;;;;9.88;5.20;;;;;;;15.03;67.40;98248.31;7591867;32;40885;-72
2022/09/29 01:29:54;;;;;;;10.63;5.50;;;;;;;15.00;67.70;98273.72;7581920;33;37999;-73
2022/09/29 01:34:22;;;;;;;11.38;5.45;;;;;;;15.14;67.14;98272.59;7562650;33;37984;-72
2022/09/29 01:38:42;;;;;;;10.70;5.30;;;;;;;14.20;70.99;98282.09;7555802;33;40106;-72
2022/09/29 01:43:08;;;;;;;14.45;6.40;;;;;;;14.83;68.25;98271.13;7566592;33;39889;-73
2022/09/29 01:47:27;;;;;;;12.30;5.65;;;;;;;14.86;67.79;98278.69;7565790;33;38097;-71
2022/09/29 01:52:06;;;;;;;12.35;5.93;;;;;;;14.91;67.87;98286.69;7554933;33;36888;-73
2022/09/29 01:56:32;;;;;;;12.23;5.65;;;;;;;14.73;68.51;98283.31;7557004;33;39337;-72
2022/09/29 02:00:53;;;;;;;10.32;5.72;;;;;;;14.65;69.25;98282.25;7565913;33;40675;-72
2022/09/29 02:05:38;;;;;;;9.23;5.22;;;;;;;14.86;68.20;98286.91;7578592;33;38794;-71
2022/09/29 02:10:03;;;;;;;11.75;6.18;;;;;;;14.88;68.32;98279.13;7590186;32;37371;-72
2022/09/29 02:14:27;;;;;;;12.70;5.80;;;;;;;14.71;68.95;98274.62;7591800;32;40013;-73
2022/09/29 02:18:57;;;;;;;13.88;6.45;;;;;;;14.96;68.18;98261.00;7561910;33;40775;-71
2022/09/29 02:23:13;;;;;;;13.57;6.03;;;;;;;15.17;67.46;98260.94;7565050;33;37889;-72
2022/09/29 02:27:32;;;;;;;10.43;5.50;;;;;;;15.13;67.42;98268.25;7555876;33;37834;-72
2022/09/29 02:31:48;;;;;;;11.20;5.37;;;;;;;15.22;66.95;98271.72;7565850;33;40079;-72
2022/09/29 02:36:17;;;;;;;13.05;6.30;;;;;;;15.16;66.92;98282.09;7565963;33;39982;-71
2022/09/29 02:40:45;;;;;;;12.20;5.78;;;;;;;15.21;67.27;98275.59;7565440;33;38632;-72
2022/09/29 02:45:19;;;;;;;11.80;5.47;;;;;;;15.13;67.59;98279.25;7555043;33;37279;-71
2022/09/29 02:49:52;;;;;;;11.95;5.50;;;;;;;15.21;67.33;98270.09;7554843;33;39703;-72
2022/09/29 02:54:11;;;;;;;9.47;5.67;;;;;;;15.37;66.87;98278.50;7565813;33;40046;-71
2022/09/29 02:58:43;;;;;;;11.52;5.97;;;;;;;15.25;67.13;98282.03;7555504;33;38057;-71
2022/09/29 03:03:03;;;;;;;13.07;5.82;;;;;;;15.17;67.29;98296.63;7554727;33;37682;-72
2022/09/29 03:07:20;;;;;;;12.00;6.18;;;;;;;15.40;66.61;98284.09;7554766;33;39176;-72
2022/09/29 03:11:36;;;;;;;13.32;5.82;;;;;;;15.36;66.82;98282.38;7563644;33;40736;-71
2022/09/29 03:15:52;;;;;;;12.45;5.80;;;;;;;15.57;66.00;98285.84;7580157;33;37843;-72
2022/09/29 03:20:08;;;;;;;14.90;6.53;;;;;;;15.46;66.51;98289.38;7580279;33;37134;-72
2022/09/29 03:24:25;;;;;;;13.43;6.22;;;;;;;15.24;67.34;98285.87;7578917;33;39475;-72
2022/09/29 03:28:41;;;;;;;11.80;6.60;;;;;;;15.22;67.54;98277.19;7580191;33;39564;-72
2022/09/29 03:32:57;;;;;;;15.05;7.07;;;;;;;14.99;68.55;98287.78;7580038;33;37777;-72
2022/09/29 03:37:13;;;;;;;12.65;6.72;;;;;;;15.34;67.20;98290.94;7580148;33;38207;-72
2022/09/29 03:41:29;;;;;;;12.32;6.90;;;;;;;15.20;68.13;98284.97;7580019;33;40136;-72
2022/09/29 03:45:53;;;;;;;13.15;7.00;;;;;;;15.05;68.77;98285.63;7579928;33;40633;-72
2022/09/29 03:50:09;;;;;;;;;;;;;;;15.25;67.57;98271.03;7580099;33;38405;-73
2022/09/29 03:54:26;;;;;;;11.52;6.37;;;;;;;15.34;67.30;98274.47;7564328;33;37578;-72
2022/09/29 03:58:42;;;;;;;10.77;6.20;;;;;;;15.18;67.69;98279.03;7554016;33;40241;-73
2022/09/29 04:02:58;;;;;;;13.00;7.00;;;;;;;14.99;68.47;98283.09;7553957;33;40806;-72
2022/09/29 04:07:14;;;;;;;13.18;7.55;;;;;;;14.90;69.14;98282.38;7553728;33;37854;-72
2022/09/29 04:11:30;;;;;;;11.88;6.45;;;;;;;14.79;69.52;98294.88;7554017;33;37924;-72
2022/09/29 04:15:49;;;;;;;12.40;6.82;;;;;;;15.04;68.69;98287.56;7552754;33;39367;-72
2022/09/29 04:20:06;;;;;;;11.65;7.05;;;;;;;15.08;68.74;98290.44;7572997;33;40617;-73
2022/09/29 04:24:22;;;;;;;14.52;7.07;;;;;;;15.13;68.69;98282.00;7579282;33;37970;-73
2022/09/29 04:28:39;;;;;;;13.73;6.82;;;;;;;15.19;68.53;98283.34;7579166;33;37264;-72
2022/09/29 04:32:55;;;;;;;11.50;6.87;;;;;;;15.19;68.52;98266.88;7579125;33;39575;-72
2022/09/29 04:37:11;;;;;;;14.65;8.02;;;;;;;15.12;68.85;98261.16;7571982;33;232566;-72
2022/09/29 04:41:27;;;;;;;13.48;7.47;;;;;;;15.09;69.17;98261.84;7578526;33;38612;-73
2022/09/29 04:45:44;;;;;;;14.13;7.45;;;;;;;15.27;68.54;98257.75;7578736;33;37917;-72
2022/09/29 04:50:00;;;;;;;13.20;7.12;;;;;;;15.11;68.83;98270.53;7560500;33;39414;-72
2022/09/29 04:54:16;;;;;;;14.55;7.60;;;;;;;15.31;68.12;98272.41;7552899;33;39997;-72
2022/09/29 04:58:33;;;;;;;14.57;7.80;;;;;;;15.29;68.22;98271.94;7552565;33;38720;-72
2022/09/29 05:02:49;;;;;;;11.98;7.03;;;;;;;15.42;67.84;98269.22;7563567;33;37964;-72
2022/09/29 05:07:05;;;;;;;14.30;6.95;;;;;;;15.30;68.03;98272.78;7552508;33;39459;-73
2022/09/29 05:11:21;;;;;;;12.00;6.90;;;;;;;15.13;68.79;98282.78;7552811;33;40752;-73
2022/09/29 05:15:36;;;;;;;12.10;7.05;;;;;;;15.38;67.99;98291.06;7552110;33;39091;-73
2022/09/29 05:19:52;;;;;;;12.75;6.93;;;;;;;15.34;68.29;98295.66;7552441;33;37215;-72
2022/09/29 05:24:08;;;;;;;12.93;7.45;;;;;;;15.11;69.19;98295.22;7552730;33;39209;-72
2022/09/29 05:28:24;;;;;;;13.77;8.13;;;;;;;15.00;69.64;98292.94;7555663;33;40022;-73
2022/09/29 05:32:43;;;;;;;19.17;11.23;;;;;;;15.12;69.34;98296.84;7555719;33;39136;-73
2022/09/29 05:36:59;;;;;;;17.27;9.73;;;;;;;15.37;68.12;98300.47;7563867;33;36018;-71
2022/09/29 05:41:17;;;;;;;15.65;8.38;;;;;;;15.17;68.84;98302.91;7557701;33;39443;-73
2022/09/29 05:45:33;;;;;;;10.32;5.50;;;;;;;15.24;68.45;98307.06;7580593;33;37780;-72
2022/09/29 05:49:49;;;;;;;5.85;3.30;;;;;;;14.54;70.52;98311.19;7556702;33;37974;-73
2022/09/29 05:54:05;;;;;;;4.65;2.75;;;;;;;14.90;68.55;98314.47;7555472;33;37798;-73
2022/09/29 05:58:21;;;;;;;4.60;2.20;;;;;;;14.76;69.86;98312.00;7566525;33;39698;-72
2022/09/29 06:02:38;;;;;;;4.85;2.08;;;;;;;14.63;69.13;98311.16;7565228;33;40811;-72
2022/09/29 06:06:55;;;;;;;3.50;2.10;;;;;;;14.76;68.66;98310.09;7580792;33;37851;-71
2022/09/29 06:11:19;;;;;;;2.20;1.90;;;;;;;14.87;68.09;98315.13;7578908;33;38345;-75
2022/09/29 06:15:36;;;;;;;6.32;3.28;;;;;;;14.82;68.73;98308.72;7577755;33;40165;-74
2022/09/29 06:19:52;;;;;;;4.22;2.25;;;;;;;13.71;72.31;98321.66;7566463;33;40886;-72
2022/09/29 06:24:08;;;;;;;6.82;2.33;;;;;;;13.31;74.09;98332.03;7563929;33;37600;-71
2022/09/29 06:28:25;;;;;;;7.75;1.77;;;;;;;13.67;72.25;98330.84;7578155;33;37796;-71
2022/09/29 06:32:41;;;;;;;4.10;2.40;;;;;;;13.53;72.79;98337.31;7576625;33;39470;-70
2022/09/29 06:41:53;;;;;;;4.35;2.50;;;;;;;14.05;71.56;98341.78;7525526;33;37448;-70
2022/09/29 06:46:09;;;;;;;3.90;2.30;;;;;;;13.81;72.89;98358.81;7527654;33;37037;-71
2022/09/29 06:50:25;;;;;;;3.03;1.50;;;;;;;14.14;71.78;98362.87;7529365;33;39053;-72
2022/09/29 06:54:41;;;;;;;2.80;1.73;;;;;;;14.04;70.40;98375.03;7533553;33;40779;-71
2022/09/29 06:58:57;;;;;;;3.08;1.75;;;;;;;13.83;70.96;98367.53;7559215;33;38707;-72
2022/09/29 07:03:13;;;;;;;2.58;1.80;;;;;;;13.96;70.39;98364.91;7580316;33;37041;-70
2022/09/29 07:07:29;;;;;;;5.03;1.77;;;;;;;13.36;72.39;98367.47;7580394;33;40207;-71
2022/09/29 07:11:48;;;;;;;4.90;1.65;;;;;;;13.33;72.52;98381.81;7569907;33;39930;-72
2022/09/29 07:16:10;;;;;;;2.53;1.60;;;;;;;13.39;73.00;98385.22;7572922;33;36886;-71
2022/09/29 07:20:27;;;;;;;3.03;1.73;;;;;;;12.72;75.28;98390.81;7580386;33;37041;-70
2022/09/29 07:24:44;;;;;;;2.03;1.60;;;;;;;12.63;74.87;98387.28;7580448;33;40361;-71
2022/09/29 07:29:00;;;;;;;3.15;1.62;;;;;;;12.96;73.93;98392.28;7579354;33;39938;-70
2022/09/29 07:33:16;;;;;;;2.87;1.70;;;;;;;13.24;72.75;98390.00;7553767;33;37955;-70
2022/09/29 07:37:35;;;;;;;3.78;1.60;;;;;;;13.42;72.89;98390.00;7578975;33;36895;-70
2022/09/29 07:41:51;;;;;;;1.87;1.50;;;;;;;13.43;72.41;98400.63;7577488;33;40277;-71
2022/09/29 07:46:08;;;;;;;3.00;1.70;;;;;;;13.88;71.03;98392.00;7553510;33;39749;-71
2022/09/29 07:50:24;;;;;;;4.07;1.62;;;;;;;13.56;72.80;98398.06;7562815;33;37830;-70
2022/09/29 07:54:40;;;;;;;1.98;1.40;;;;;;;14.08;71.13;98392.41;7560796;33;37398;-71
2022/09/29 07:58:56;;;;;;;4.57;1.50;;;;;;;14.58;69.27;98391.69;7567758;33;40105;-70
2022/09/29 08:03:12;;;;;;;1.50;1.40;;;;;;;14.71;70.12;98392.59;7568061;33;40079;-70
2022/09/29 08:07:28;;;;;;;2.75;1.50;;;;;;;14.70;69.98;98410.16;7553381;33;39112;-70
2022/09/29 08:11:45;;;;;;;1.52;1.40;;;;;;;14.21;68.92;98420.72;7564393;32;37189;-70
2022/09/29 08:16:04;;;;;;;1.50;1.37;;;;;;;14.58;68.37;98424.59;7572592;33;39321;-71
2022/09/29 08:20:21;;;;;;;2.50;1.37;;;;;;;14.41;68.71;98436.41;7589954;32;40710;-73
2022/09/29 08:24:39;;;;;;;7.45;1.80;;;;;;;14.56;68.84;98426.03;7578137;33;37626;-70
2022/09/29 08:28:55;;;;;;;1.45;1.30;;;;;;;14.76;68.13;98430.78;7576989;33;37154;-72
2022/09/29 08:33:22;;;;;;;1.90;1.40;;;;;;;14.49;69.06;98437.53;7559471;33;40260;-71
2022/09/29 08:37:38;;;;;;;2.65;1.75;;;;;;;14.44;68.57;98448.69;7578314;33;40861;-70
2022/09/29 08:42:02;;;;;;;2.97;1.80;;;;;;;14.15;70.21;98450.25;7558117;33;38032;-71
2022/09/29 08:46:31;;;;;;;2.33;1.60;;;;;;;13.86;70.92;98464.69;7575630;33;36999;-69
2022/09/29 08:51:06;;;;;;;3.57;1.50;;;;;;;13.69;71.02;98465.50;7577864;33;39027;-70
2022/09/29 08:55:42;;;;;;;2.30;1.40;;;;;;;14.14;70.10;98481.50;7587599;32;39349;-70
2022/09/29 08:59:59;;;;;;;2.97;2.17;;;;;;;14.11;70.25;98481.38;7584757;32;37823;-70
2022/09/29 09:04:31;;;;;;;3.78;1.92;;;;;;;14.05;71.28;98473.31;7575320;33;37097;-70
2022/09/29 09:09:08;;;;;;;3.20;1.70;;;;;;;14.51;70.06;98462.69;7574487;33;39981;-69
2022/09/29 09:13:45;;;;;;;1.95;1.40;;;;;;;14.95;68.26;98455.03;7553919;33;39581;-70
2022/09/29 09:18:23;;;;;;;5.10;1.95;;;;;;;14.51;66.77;98456.41;7585216;32;37987;-71
2022/09/29 09:22:59;;;;;;;3.15;1.80;;;;;;;14.01;70.18;98471.59;7580674;33;37667;-70
2022/09/29 09:27:21;;;;;;;2.12;1.48;;;;;;;14.68;69.41;98458.25;7580890;33;39449;-70
2022/09/29 09:31:56;;;;;;;1.60;1.40;;;;;;;14.88;67.22;98464.91;7580466;32;40007;-71
2022/09/29 09:36:20;;;;;;;3.10;1.70;;;;;;;14.98;66.50;98459.84;7589187;32;37920;-70
2022/09/29 09:40:51;;;;;;;2.03;1.65;;;;;;;15.03;66.44;98448.66;7583928;32;37078;-70
2022/09/29 09:45:12;;;;;;;2.25;1.50;;;;;;;14.83;65.27;98460.41;7544742;33;40207;-71
2022/09/29 09:49:39;;;;;;;1.70;1.40;;;;;;;13.90;68.53;98471.09;7580887;33;39869;-70
2022/09/29 09:53:58;;;;;;;5.78;1.42;;;;;;;14.88;65.40;98467.66;7574071;33;38754;-71
2022/09/29 09:58:32;;;;;;;1.50;1.40;;;;;;;15.74;64.94;98452.41;7554855;33;36997;-72
2022/09/29 10:02:54;;;;;;;3.30;1.60;;;;;;;16.03;63.98;98458.94;7548729;33;38976;-72
2022/09/29 10:07:10;;;;;;;2.28;1.30;;;;;;;16.43;61.86;98463.00;7566204;33;40758;-71
2022/09/29 10:11:33;;;;;;;1.50;1.20;;;;;;;16.59;63.18;98465.88;7560287;33;38651;-72
2022/09/29 10:15:57;;;;;;;2.65;1.20;;;;;;;16.99;62.30;98460.47;7591722;32;37514;-71
2022/09/29 10:20:27;;;;;;;1.12;1.10;;;;;;;17.60;59.86;98451.22;7592225;32;39137;-71
2022/09/29 10:24:43;;;;;;;1.37;1.17;;;;;;;17.76;58.70;98447.69;7556750;33;39613;-72
2022/09/29 10:29:02;;;;;;;2.90;1.50;;;;;;;16.35;60.28;98467.47;7568580;33;37549;-71
2022/09/29 10:33:20;;;;;;;3.90;1.30;;;;;;;17.53;59.16;98462.03;7570408;33;36753;-71
2022/09/29 10:37:45;;;;;;;2.75;1.37;;;;;;;17.55;59.92;98476.25;7554832;33;38906;-71
2022/09/29 10:42:01;;;;;;;1.30;1.20;;;;;;;17.87;57.86;98473.66;7565443;33;40531;-71
2022/09/29 10:46:37;;;;;;;0.98;0.98;;;;;;;18.09;58.06;98465.94;7553044;33;37913;-71
2022/09/29 10:51:00;;;;;;;0.90;0.90;;;;;;;18.76;55.67;98455.78;7549198;33;37310;-71
2022/09/29 10:55:27;;;;;;;1.70;1.10;;;;;;;19.28;54.46;98477.84;7549829;33;39938;-71
2022/09/29 10:59:52;;;;;;;2.33;1.27;;;;;;;18.51;54.81;98502.09;7560825;33;40926;-71
2022/09/29 11:04:23;;;;;;;5.40;1.42;;;;;;;17.09;58.31;98511.50;7565185;33;36869;-71
2022/09/29 11:09:06;;;;;;;1.12;1.10;;;;;;;17.70;56.28;98496.78;7564945;33;36769;-71
2022/09/29 11:13:23;;;;;;;;;;;;;;;18.46;54.71;98498.81;7555193;33;40200;-71
2022/09/29 11:17:47;;;;;;;1.12;1.02;;;;;;;18.08;54.78;98497.44;7554833;33;41000;-71
2022/09/29 11:22:12;;;;;;;1.83;1.33;;;;;;;18.16;55.68;98488.16;7554513;33;38792;-71
2022/09/29 11:26:51;;;;;;;2.53;1.27;;;;;;;17.97;57.83;98486.91;7554749;33;37019;-71
2022/09/29 11:31:18;;;;;;;1.42;1.33;;;;;;;18.50;53.70;98485.88;7554565;33;39477;-71
2022/09/29 11:35:52;;;;;;;2.97;1.50;;;;;;;17.86;55.39;98499.59;7554607;33;40724;-72
2022/09/29 11:40:44;;;;;;;1.77;1.30;;;;;;;18.25;54.42;98497.09;7554361;33;38561;-71
2022/09/29 11:45:13;;;;;;;2.42;1.40;;;;;;;18.02;56.58;98500.44;7530731;33;37068;-71
2022/09/29 11:49:54;;;;;;;2.65;1.70;;;;;;;18.30;54.40;98499.59;7554051;33;39410;-71
2022/09/29 11:54:22;;;;;;;2.40;1.65;;;;;;;17.53;56.04;98497.06;7554425;33;40292;-70
2022/09/29 11:58:51;;;;;;;1.67;1.20;;;;;;;18.31;55.41;98495.66;7550930;33;38392;-71
2022/09/29 12:03:16;;;;;;;2.60;1.45;;;;;;;17.60;56.47;98495.31;7553283;33;37897;-71
2022/09/29 12:07:44;;;;;;;2.35;1.58;;;;;;;17.76;56.11;98498.09;7552777;33;39351;-70
2022/09/29 12:12:22;;;;;;;2.47;1.37;;;;;;;17.38;56.88;98502.16;7553583;33;41218;-70
2022/09/29 12:17:07;;;;;;;6.10;1.40;;;;;;;17.18;57.66;98512.19;7561706;33;38163;-70
2022/09/29 12:21:39;;;;;;;3.83;1.60;;;;;;;16.96;59.06;98512.69;7552430;33;38065;-70
2022/09/29 12:26:07;;;;;;;4.97;1.52;;;;;;;16.63;60.17;98519.88;7564213;33;39415;-72
2022/09/29 12:30:28;;;;;;;3.58;1.33;;;;;;;17.13;58.01;98512.44;7553253;33;39776;-70
2022/09/29 12:34:53;;;;;;;1.67;1.30;;;;;;;17.51;58.47;98518.66;7563111;33;38477;-70
2022/09/29 12:39:18;;;;;;;1.73;1.40;;;;;;;16.96;57.53;98521.72;7563171;33;36685;-70
2022/09/29 12:43:44;;;;;;;3.72;1.62;;;;;;;17.18;56.18;98528.72;7564216;33;39459;-70
2022/09/29 12:48:33;;;;;;;2.90;1.50;;;;;;;17.21;56.84;98528.03;7552149;33;40864;-70
2022/09/29 12:52:50;;;;;;;2.72;1.30;;;;;;;17.68;57.42;98517.56;7553324;33;36459;-70
2022/09/29 12:57:09;;;;;;;3.92;1.25;;;;;;;17.72;55.56;98519.25;7552139;33;37033;-70
2022/09/29 13:01:27;;;;;;;2.30;1.50;;;;;;;18.34;55.12;98519.00;7563427;33;39064;-70
2022/09/29 13:05:55;;;;;;;3.35;1.40;;;;;;;18.37;53.33;98510.81;7552647;33;40097;-70
2022/09/29 13:10:23;;;;;;;3.42;1.40;;;;;;;18.94;54.95;98513.41;7551849;33;37870;-71
2022/09/29 13:14:48;;;;;;;1.67;1.30;;;;;;;19.10;50.62;98513.38;7552563;33;37129;-71
2022/09/29 13:19:41;;;;;;;1.37;1.15;;;;;;;18.23;53.68;98513.22;7551301;33;38026;-70
2022/09/29 13:24:41;;;;;;;5.32;1.40;;;;;;;17.79;54.46;98527.72;7551956;33;39977;-70
2022/09/29 13:29:22;;;;;;;1.73;1.30;;;;;;;18.43;54.16;98513.31;7551302;33;37878;-71
2022/09/29 13:33:38;;;;;;;1.87;1.35;;;;;;;17.79;54.46;98515.91;7551709;33;37822;-71
2022/09/29 13:38:00;;;;;;;1.62;1.15;;;;;;;18.48;53.75;98516.59;7551647;33;39542;-70
2022/09/29 13:42:36;;;;;;;1.42;1.30;;;;;;;18.10;54.32;98517.97;7561757;33;40263;-71
2022/09/29 13:46:54;;;;;;;1.10;0.98;;;;;;;19.07;51.44;98528.69;7551939;33;39018;-71
2022/09/29 13:51:27;;;;;;;2.95;1.10;;;;;;;19.30;49.30;98519.75;7555155;33;37298;-71
2022/09/29 13:55:53;;;;;;;2.37;0.90;;;;;;;19.11;49.79;98514.97;7555244;33;39042;-76
2022/09/29 14:00:17;;;;;;;0.80;0.80;;;;;;;18.60;50.93;98534.22;7540437;32;40576;-72
2022/09/29 14:04:39;;;;;;;1.12;1.02;;;;;;;19.18;49.82;98526.19;7529996;33;37132;-72
2022/09/29 14:08:59;;;;;;;1.87;1.15;;;;;;;17.68;53.26;98523.06;7529450;33;37022;-72
2022/09/29 14:13:54;;;;;;;1.10;1.10;;;;;;;17.73;53.10;98536.59;7529551;33;39489;-72
2022/09/29 14:18:25;;;;;;;1.62;1.10;;;;;;;18.19;51.76;98537.91;7491055;33;40674;-72
2022/09/29 14:22:56;;;;;;;1.40;1.05;;;;;;;18.61;51.63;98542.16;7529051;33;38795;-72
2022/09/29 14:27:24;;;;;;;1.35;1.20;;;;;;;18.44;52.25;98557.09;7529785;33;38767;-72
2022/09/29 14:31:44;;;;;;;1.90;1.30;;;;;;;19.11;50.39;98548.91;7528741;33;39397;-71
2022/09/29 14:36:00;;;;;;;2.12;1.20;;;;;;;18.50;51.73;98557.62;7529543;33;39987;-72
2022/09/29 14:40:29;;;;;;;2.80;1.52;;;;;;;18.28;52.53;98573.63;7528805;33;37919;-72
2022/09/29 14:54:41;;;;;;;2.12;1.30;;;;;;;18.44;52.90;98570.06;7528650;33;40002;-72
2022/09/29 14:59:34;;;;;;;2.25;1.05;;;;;;;18.16;53.05;98566.22;7527203;33;38643;-71
2022/09/29 15:03:51;;;;;;;2.65;1.05;;;;;;;18.84;50.59;98571.94;7529033;33;37178;-71
2022/09/29 15:08:28;;;;;;;1.55;1.12;;;;;;;18.16;53.85;98585.53;7539285;33;40120;-72
2022/09/29 15:12:46;;;;;;;1.60;1.23;;;;;;;18.53;52.72;98579.00;7539301;33;39962;-72
2022/09/29 15:17:24;;;;;;;3.55;1.10;;;;;;;17.51;53.71;98587.53;7539139;33;38657;-72
2022/09/29 15:21:56;;;;;;;2.95;1.30;;;;;;;18.23;51.86;98582.16;7522145;33;37261;-72
2022/09/29 15:26:16;;;;;;;1.30;1.10;;;;;;;17.91;52.60;98581.25;7538350;33;39829;-72
2022/09/29 15:30:33;;;;;;;11.75;3.80;;;;;;;17.59;54.14;98589.34;7528228;33;40192;-72
2022/09/29 15:34:52;;;;;;;6.10;2.10;;;;;;;17.31;54.59;98586.53;7528316;33;38135;-71
2022/09/29 15:39:31;;;;;;;2.40;1.37;;;;;;;18.47;53.62;98585.94;7528368;33;37246;-71
2022/09/29 15:44:16;;;;;;;5.20;2.37;;;;;;;17.71;54.02;98597.56;7538451;33;40236;-72
2022/09/29 15:48:33;;;;;;;4.50;1.70;;;;;;;17.48;55.45;98594.53;7538508;33;39694;-71
2022/09/29 15:52:50;;;;;;;3.72;1.65;;;;;;;17.62;54.17;98583.94;7528044;33;37550;-72
2022/09/29 15:57:42;;;;;;;4.47;2.03;;;;;;;18.11;54.14;98579.44;7527015;33;35570;-72
2022/09/29 16:02:04;;;;;;;4.47;2.05;;;;;;;17.99;56.48;98572.84;7532064;33;40108;-72
2022/09/29 16:06:24;;;;;;;4.40;2.20;;;;;;;18.16;56.11;98585.53;7527908;33;39976;-72
2022/09/29 16:10:48;;;;;;;5.28;1.73;;;;;;;18.13;55.77;98599.22;7526550;33;37957;-73
2022/09/29 16:15:05;;;;;;;5.25;1.92;;;;;;;18.18;55.61;98610.00;7526981;33;37213;-72
2022/09/29 16:19:29;;;;;;;6.07;1.67;;;;;;;17.99;55.75;98610.66;7527333;33;39436;-72
2022/09/29 16:24:04;;;;;;;3.40;2.10;;;;;;;17.82;56.05;98629.03;7540908;32;40855;-72
2022/09/29 16:28:28;;;;;;;3.50;1.90;;;;;;;17.69;56.46;98651.44;7552859;33;38625;-72
2022/09/29 16:32:44;;;;;;;5.18;2.70;;;;;;;17.53;56.78;98665.16;7553053;33;37226;-71
2022/09/29 16:37:05;;;;;;;5.50;2.83;;;;;;;17.23;57.53;98677.19;7553024;33;39319;-72
2022/09/29 16:41:27;;;;;;;8.93;3.58;;;;;;;16.97;59.14;98687.69;7552726;33;39655;-72
2022/09/29 16:45:46;;;;;;;5.87;2.92;;;;;;;16.89;60.41;98668.19;7552379;33;37851;-72
2022/09/29 16:50:11;;;;;;;3.08;2.00;;;;;;;17.09;59.67;98646.41;7552610;33;37515;-72
2022/09/29 16:54:31;;;;;;;5.93;2.70;;;;;;;16.68;61.41;98643.47;7551558;33;39929;-72
2022/09/29 16:59:03;;;;;;;4.65;2.30;;;;;;;17.02;59.98;98646.19;7552176;33;40854;-72
2022/09/29 17:03:19;;;;;;;6.75;2.25;;;;;;;17.12;59.47;98620.16;7552522;33;37607;-72
2022/09/29 17:07:40;;;;;;;8.48;2.10;;;;;;;16.86;59.78;98616.56;7551619;33;37195;-72
2022/09/29 17:11:58;;;;;;;2.90;1.70;;;;;;;16.72;60.10;98629.81;7552582;33;40137;-72
2022/09/29 17:16:20;;;;;;;8.20;2.05;;;;;;;16.30;61.47;98660.19;7551902;33;40578;-71
2022/09/29 17:20:37;;;;;;;7.75;3.17;;;;;;;16.11;61.40;98660.69;7552586;33;37612;-72
2022/09/29 17:24:54;;;;;;;6.10;3.40;;;;;;;15.99;62.02;98666.91;7547248;33;37120;-72
2022/09/29 17:29:10;;;;;;;4.25;2.95;;;;;;;15.95;62.25;98655.78;7555154;33;39424;-72
2022/09/29 17:33:27;;;;;;;8.07;3.87;;;;;;;15.52;63.71;98650.53;7555498;33;39733;-71
2022/09/29 17:37:45;;;;;;;7.97;3.80;;;;;;;15.71;62.87;98658.34;7554621;33;38002;-72
2022/09/29 17:42:01;;;;;;;8.02;3.10;;;;;;;15.78;62.54;98655.94;7555903;33;36074;-70
2022/09/29 17:46:17;;;;;;;7.55;2.58;;;;;;;15.94;61.75;98658.87;7555042;33;40109;-73
2022/09/29 17:50:39;;;;;;;4.15;2.20;;;;;;;15.68;62.33;98662.56;7555597;33;40793;-72
2022/09/29 17:54:55;;;;;;;7.37;3.40;;;;;;;15.86;61.73;98652.28;7553078;33;38603;-74
2022/09/29 17:59:13;;;;;;;6.47;1.98;;;;;;;15.81;61.76;98670.94;7555679;33;37124;-72
2022/09/29 18:03:29;;;;;;;8.60;2.65;;;;;;;15.37;62.98;98674.69;7555543;33;40097;-72
2022/09/29 18:07:45;;;;;;;5.15;1.92;;;;;;;15.19;63.54;98664.94;7555523;33;39723;-71
2022/09/29 18:12:01;;;;;;;4.15;1.85;;;;;;;15.24;63.30;98674.94;7555236;33;38086;-72
2022/09/29 18:16:21;;;;;;;4.55;1.90;;;;;;;15.16;63.49;98679.31;7555159;33;37596;-72
2022/09/29 18:20:39;;;;;;;2.90;1.80;;;;;;;15.49;62.12;98675.94;7555288;33;40235;-73
2022/09/29 18:24:55;;;;;;;7.97;1.95;;;;;;;15.39;61.84;98675.16;7555214;33;40923;-71
2022/09/29 18:29:15;;;;;;;6.37;2.15;;;;;;;15.37;61.92;98669.22;7554907;33;38685;-73
2022/09/29 18:33:33;;;;;;;3.05;1.92;;;;;;;14.99;63.45;98671.97;7553062;33;37199;-71
2022/09/29 18:37:50;;;;;;;5.62;1.85;;;;;;;14.88;63.50;98674.25;7554911;33;40208;-72
2022/09/29 18:42:07;;;;;;;2.87;1.98;;;;;;;15.08;62.61;98696.63;7554754;33;40822;-72
2022/09/29 18:46:23;;;;;;;6.18;1.73;;;;;;;14.63;63.81;98703.38;7554739;33;38691;-71
2022/09/29 18:50:47;;;;;;;13.77;2.45;;;;;;;14.64;63.66;98715.94;7554663;33;37293;-72
2022/09/29 18:55:05;;;;;;;5.12;2.40;;;;;;;14.76;62.90;98715.28;7554683;33;39962;-73
2022/09/29 18:59:21;;;;;;;5.75;2.17;;;;;;;14.78;63.07;98729.47;7568617;32;39847;-71
2022/09/29 19:03:39;;;;;;;3.25;2.25;;;;;;;15.01;61.79;98728.13;7586068;32;38731;-72
2022/09/29 19:07:58;;;;;;;5.43;2.15;;;;;;;14.83;62.06;98729.28;7588837;32;37126;-72
2022/09/29 19:12:14;;;;;;;2.97;2.03;;;;;;;14.71;62.50;98759.34;7582608;32;40101;-72
2022/09/29 19:16:32;;;;;;;4.15;2.28;;;;;;;14.91;61.86;98755.12;7604990;32;40058;-72
2022/09/29 19:20:57;;;;;;;4.15;2.35;;;;;;;14.85;62.00;98779.19;7597456;32;37590;-72
2022/09/29 19:25:16;;;;;;;3.37;2.00;;;;;;;14.83;62.37;98779.50;7606147;32;37552;-72
2022/09/29 19:29:32;;;;;;;5.95;2.28;;;;;;;14.91;62.29;98766.09;7587827;32;40208;-72
2022/09/29 19:33:49;;;;;;;3.42;2.28;;;;;;;14.76;63.45;98770.12;7579982;32;39984;-73
2022/09/29 19:38:05;;;;;;;3.83;2.08;;;;;;;14.54;64.78;98765.59;7579796;33;37965;-74
2022/09/29 19:42:22;;;;;;;6.45;2.15;;;;;;;14.42;65.12;98766.28;7579903;33;37348;-72
2022/09/29 19:46:38;;;;;;;9.68;2.50;;;;;;;14.39;65.15;98762.22;7579836;33;39328;-74
2022/09/29 19:55:37;;;;;;;7.45;2.35;;;;;;;14.39;64.78;98755.94;7600533;32;38701;-74
2022/09/29 19:59:53;;;;;;;3.17;2.12;;;;;;;14.43;64.10;98763.19;7579879;33;37870;-74
2022/09/29 20:04:13;;;;;;;5.47;2.10;;;;;;;14.27;63.64;98789.47;7579463;32;39430;-73
2022/09/29 20:08:29;;;;;;;5.70;2.47;;;;;;;14.25;64.25;98789.78;7595736;32;39991;-74
2022/09/29 20:12:45;;;;;;;6.47;2.00;;;;;;;14.19;64.76;98785.56;7605427;32;37963;-73
2022/09/29 20:17:01;;;;;;;2.97;1.90;;;;;;;14.07;65.73;98788.13;7605199;32;37890;-73
2022/09/29 20:21:17;;;;;;;10.48;3.20;;;;;;;14.16;66.25;98797.19;7605308;32;40329;-74
2022/09/29 20:25:34;;;;;;;6.03;3.12;;;;;;;13.82;67.64;98798.72;7603574;32;40748;-73
2022/09/29 20:29:50;;;;;;;8.20;3.55;;;;;;;14.32;65.85;98794.00;7605201;32;37886;-73
2022/09/29 20:34:06;;;;;;;4.20;2.42;;;;;;;14.32;65.84;98789.31;7605181;32;37927;-73
2022/09/29 20:38:22;;;;;;;3.12;1.77;;;;;;;13.88;67.28;98800.19;7605058;32;39517;-74
2022/09/29 20:42:40;;;;;;;2.47;1.70;;;;;;;14.23;66.30;98792.06;7604704;32;39948;-74
2022/09/29 20:46:57;;;;;;;5.50;2.90;;;;;;;14.20;66.37;98803.66;7604861;32;38795;-72
2022/09/29 20:51:14;;;;;;;3.60;2.05;;;;;;;14.16;66.75;98826.53;7601457;32;37106;-76